Johnsons Corner, North Dakota
Current Conditions -  °F | °C
As of 12:55 AM on Sunday 21 Dec 2014 (Local Time) from KS25 Reporting Station
Clear Clear  
Wind Chill: 16°   Ceiling: Unl
Heat Index: 23°   Visibility: 10mi
Dew Point: 19°   Wind: 6mph
Humidity: 86%   Direction: 230°SW
Pressure: 29.67"   Gusts: NA
Location:  47.9596°N, 102.867°W
Report Text: KS25 210655Z AUTO 23005KT 10SM CLR M05/M07 A2967 RMK AO2
Loading
Personal Weather Stations






























Interactive Weather Map New forecast layout! Learn more

10-Day Weather Forecast

Advertisements
Track Severe Weather on mobile